sensor_id;sensor_type;location;lat;lon;timestamp;P1;durP1;ratioP1;P2;durP2;ratioP2
12437;SDS011;6283;51.330;12.374;2024-02-28T00:01:26;16.87;;;8.23;;
12437;SDS011;6283;51.330;12.374;2024-02-28T00:03:52;17.83;;;9.07;;
12437;SDS011;6283;51.330;12.374;2024-02-28T00:06:18;15.10;;;8.87;;
12437;SDS011;6283;51.330;12.374;2024-02-28T00:08:43;15.83;;;8.77;;
12437;SDS011;6283;51.330;12.374;2024-02-28T00:11:09;18.47;;;8.33;;
12437;SDS011;6283;51.330;12.374;2024-02-28T00:13:35;18.80;;;8.87;;
12437;SDS011;6283;51.330;12.374;2024-02-28T00:16:01;17.13;;;8.37;;
12437;SDS011;6283;51.330;12.374;2024-02-28T00:18:27;17.07;;;8.43;;
12437;SDS011;6283;51.330;12.374;2024-02-28T00:20:52;19.10;;;9.03;;
12437;SDS011;6283;51.330;12.374;2024-02-28T00:23:19;17.57;;;10.20;;
12437;SDS011;6283;51.330;12.374;2024-02-28T00:25:45;19.80;;;9.83;;
12437;SDS011;6283;51.330;12.374;2024-02-28T00:28:11;17.47;;;9.03;;
12437;SDS011;6283;51.330;12.374;2024-02-28T00:30:36;17.57;;;9.50;;
12437;SDS011;6283;51.330;12.374;2024-02-28T00:33:02;18.67;;;9.90;;
12437;SDS011;6283;51.330;12.374;2024-02-28T00:35:28;20.87;;;9.57;;
12437;SDS011;6283;51.330;12.374;2024-02-28T00:37:58;18.63;;;9.80;;
12437;SDS011;6283;51.330;12.374;2024-02-28T00:40:24;18.03;;;9.67;;
12437;SDS011;6283;51.330;12.374;2024-02-28T00:42:50;20.03;;;9.57;;
12437;SDS011;6283;51.330;12.374;2024-02-28T00:45:16;17.07;;;8.63;;
12437;SDS011;6283;51.330;12.374;2024-02-28T00:47:42;17.33;;;9.03;;
12437;SDS011;6283;51.330;12.374;2024-02-28T00:50:08;17.10;;;9.03;;
12437;SDS011;6283;51.330;12.374;2024-02-28T00:52:34;17.20;;;8.47;;
12437;SDS011;6283;51.330;12.374;2024-02-28T00:54:59;15.40;;;8.43;;
12437;SDS011;6283;51.330;12.374;2024-02-28T00:57:25;16.73;;;7.83;;
12437;SDS011;6283;51.330;12.374;2024-02-28T00:59:51;16.33;;;9.60;;
12437;SDS011;6283;51.330;12.374;2024-02-28T01:02:16;16.27;;;9.20;;
12437;SDS011;6283;51.330;12.374;2024-02-28T01:04:42;18.77;;;9.67;;
12437;SDS011;6283;51.330;12.374;2024-02-28T01:07:07;18.70;;;10.03;;
12437;SDS011;6283;51.330;12.374;2024-02-28T01:09:33;18.47;;;10.03;;
12437;SDS011;6283;51.330;12.374;2024-02-28T01:11:58;20.00;;;10.53;;
12437;SDS011;6283;51.330;12.374;2024-02-28T01:14:24;24.77;;;10.03;;
12437;SDS011;6283;51.330;12.374;2024-02-28T01:16:50;18.17;;;10.20;;
12437;SDS011;6283;51.330;12.374;2024-02-28T01:19:15;18.07;;;9.93;;
12437;SDS011;6283;51.330;12.374;2024-02-28T01:21:41;15.93;;;10.17;;
12437;SDS011;6283;51.330;12.374;2024-02-28T01:24:07;16.90;;;9.37;;
12437;SDS011;6283;51.330;12.374;2024-02-28T01:26:33;21.53;;;10.83;;
12437;SDS011;6283;51.330;12.374;2024-02-28T01:28:58;17.17;;;9.87;;
12437;SDS011;6283;51.330;12.374;2024-02-28T01:31:24;18.33;;;9.23;;
12437;SDS011;6283;51.330;12.374;2024-02-28T01:33:50;17.93;;;10.70;;
12437;SDS011;6283;51.330;12.374;2024-02-28T01:36:15;20.43;;;11.03;;
12437;SDS011;6283;51.330;12.374;2024-02-28T01:38:41;19.67;;;10.60;;
12437;SDS011;6283;51.330;12.374;2024-02-28T01:41:06;19.57;;;9.93;;
12437;SDS011;6283;51.330;12.374;2024-02-28T01:43:32;15.43;;;9.73;;
12437;SDS011;6283;51.330;12.374;2024-02-28T01:46:01;17.93;;;9.97;;
12437;SDS011;6283;51.330;12.374;2024-02-28T01:48:31;18.13;;;10.10;;
12437;SDS011;6283;51.330;12.374;2024-02-28T01:50:57;15.13;;;9.53;;
12437;SDS011;6283;51.330;12.374;2024-02-28T01:53:23;17.90;;;9.83;;
12437;SDS011;6283;51.330;12.374;2024-02-28T01:55:49;19.53;;;10.90;;
12437;SDS011;6283;51.330;12.374;2024-02-28T01:58:14;19.33;;;9.50;;
12437;SDS011;6283;51.330;12.374;2024-02-28T02:00:40;17.93;;;9.73;;
12437;SDS011;6283;51.330;12.374;2024-02-28T02:03:07;18.00;;;9.60;;
12437;SDS011;6283;51.330;12.374;2024-02-28T02:05:33;20.13;;;10.83;;
12437;SDS011;6283;51.330;12.374;2024-02-28T02:07:58;18.03;;;9.87;;
12437;SDS011;6283;51.330;12.374;2024-02-28T02:10:27;20.17;;;10.50;;
12437;SDS011;6283;51.330;12.374;2024-02-28T02:12:53;17.87;;;10.83;;
12437;SDS011;6283;51.330;12.374;2024-02-28T02:15:19;17.73;;;9.70;;
12437;SDS011;6283;51.330;12.374;2024-02-28T02:17:44;19.70;;;11.47;;
12437;SDS011;6283;51.330;12.374;2024-02-28T02:20:11;23.20;;;12.20;;
12437;SDS011;6283;51.330;12.374;2024-02-28T02:22:39;22.30;;;11.33;;
12437;SDS011;6283;51.330;12.374;2024-02-28T02:25:05;23.33;;;12.27;;
12437;SDS011;6283;51.330;12.374;2024-02-28T02:27:31;21.67;;;12.30;;
12437;SDS011;6283;51.330;12.374;2024-02-28T02:29:56;20.33;;;12.10;;
12437;SDS011;6283;51.330;12.374;2024-02-28T02:32:22;21.50;;;11.40;;
12437;SDS011;6283;51.330;12.374;2024-02-28T02:34:48;21.43;;;12.80;;
12437;SDS011;6283;51.330;12.374;2024-02-28T02:37:14;25.20;;;13.47;;
12437;SDS011;6283;51.330;12.374;2024-02-28T02:39:40;21.17;;;11.67;;
12437;SDS011;6283;51.330;12.374;2024-02-28T02:42:05;24.93;;;12.43;;
12437;SDS011;6283;51.330;12.374;2024-02-28T02:44:31;19.80;;;11.70;;
12437;SDS011;6283;51.330;12.374;2024-02-28T02:46:57;20.50;;;11.07;;
12437;SDS011;6283;51.330;12.374;2024-02-28T02:49:22;20.63;;;11.33;;
12437;SDS011;6283;51.330;12.374;2024-02-28T02:51:48;22.10;;;12.63;;
12437;SDS011;6283;51.330;12.374;2024-02-28T02:54:13;21.53;;;11.73;;
12437;SDS011;6283;51.330;12.374;2024-02-28T02:56:42;22.40;;;11.30;;
12437;SDS011;6283;51.330;12.374;2024-02-28T02:59:09;20.87;;;11.53;;
12437;SDS011;6283;51.330;12.374;2024-02-28T03:01:36;20.07;;;11.17;;
12437;SDS011;6283;51.330;12.374;2024-02-28T03:04:01;24.40;;;12.47;;
12437;SDS011;6283;51.330;12.374;2024-02-28T03:06:27;25.50;;;13.07;;
12437;SDS011;6283;51.330;12.374;2024-02-28T03:08:53;21.63;;;11.30;;
12437;SDS011;6283;51.330;12.374;2024-02-28T03:11:19;21.27;;;11.33;;
12437;SDS011;6283;51.330;12.374;2024-02-28T03:13:45;20.53;;;10.83;;
12437;SDS011;6283;51.330;12.374;2024-02-28T03:16:11;19.73;;;11.60;;
12437;SDS011;6283;51.330;12.374;2024-02-28T03:18:36;23.80;;;11.70;;
12437;SDS011;6283;51.330;12.374;2024-02-28T03:21:02;23.80;;;12.73;;
12437;SDS011;6283;51.330;12.374;2024-02-28T03:23:28;21.83;;;12.37;;
12437;SDS011;6283;51.330;12.374;2024-02-28T03:25:54;23.27;;;11.83;;
12437;SDS011;6283;51.330;12.374;2024-02-28T03:28:20;20.77;;;11.70;;
12437;SDS011;6283;51.330;12.374;2024-02-28T03:30:45;20.37;;;11.53;;
12437;SDS011;6283;51.330;12.374;2024-02-28T03:33:11;19.53;;;11.63;;
12437;SDS011;6283;51.330;12.374;2024-02-28T03:35:37;19.87;;;11.43;;
12437;SDS011;6283;51.330;12.374;2024-02-28T03:38:02;22.03;;;12.10;;
12437;SDS011;6283;51.330;12.374;2024-02-28T03:40:28;18.83;;;10.97;;
12437;SDS011;6283;51.330;12.374;2024-02-28T03:42:53;22.43;;;12.13;;
12437;SDS011;6283;51.330;12.374;2024-02-28T03:45:19;19.70;;;11.23;;
12437;SDS011;6283;51.330;12.374;2024-02-28T03:47:45;19.20;;;10.93;;
12437;SDS011;6283;51.330;12.374;2024-02-28T03:50:10;19.17;;;10.90;;
12437;SDS011;6283;51.330;12.374;2024-02-28T03:52:36;23.30;;;12.50;;
12437;SDS011;6283;51.330;12.374;2024-02-28T03:55:02;19.83;;;11.57;;
12437;SDS011;6283;51.330;12.374;2024-02-28T03:57:28;19.50;;;10.90;;
12437;SDS011;6283;51.330;12.374;2024-02-28T03:59:53;21.17;;;11.13;;
12437;SDS011;6283;51.330;12.374;2024-02-28T04:02:19;19.40;;;11.17;;
12437;SDS011;6283;51.330;12.374;2024-02-28T04:04:45;20.47;;;11.37;;
12437;SDS011;6283;51.330;12.374;2024-02-28T04:07:10;18.37;;;11.43;;
12437;SDS011;6283;51.330;12.374;2024-02-28T04:09:36;19.97;;;11.47;;
12437;SDS011;6283;51.330;12.374;2024-02-28T04:12:01;22.27;;;10.90;;
12437;SDS011;6283;51.330;12.374;2024-02-28T04:14:28;19.17;;;11.20;;
12437;SDS011;6283;51.330;12.374;2024-02-28T04:16:53;19.70;;;11.20;;
12437;SDS011;6283;51.330;12.374;2024-02-28T04:19:19;25.13;;;12.83;;
12437;SDS011;6283;51.330;12.374;2024-02-28T04:21:45;22.43;;;12.60;;
12437;SDS011;6283;51.330;12.374;2024-02-28T04:24:10;21.80;;;11.70;;
12437;SDS011;6283;51.330;12.374;2024-02-28T04:26:36;22.13;;;13.57;;
12437;SDS011;6283;51.330;12.374;2024-02-28T04:29:01;20.50;;;12.53;;
12437;SDS011;6283;51.330;12.374;2024-02-28T04:31:32;22.00;;;12.17;;
12437;SDS011;6283;51.330;12.374;2024-02-28T04:33:58;23.23;;;13.00;;
12437;SDS011;6283;51.330;12.374;2024-02-28T04:36:24;25.90;;;12.73;;
12437;SDS011;6283;51.330;12.374;2024-02-28T04:38:49;25.30;;;13.73;;
12437;SDS011;6283;51.330;12.374;2024-02-28T04:41:15;26.43;;;14.87;;
12437;SDS011;6283;51.330;12.374;2024-02-28T04:43:41;25.50;;;13.87;;
12437;SDS011;6283;51.330;12.374;2024-02-28T04:46:06;26.57;;;14.37;;
12437;SDS011;6283;51.330;12.374;2024-02-28T04:48:32;27.10;;;15.00;;
12437;SDS011;6283;51.330;12.374;2024-02-28T04:50:59;23.43;;;13.43;;
12437;SDS011;6283;51.330;12.374;2024-02-28T04:53:25;27.13;;;14.60;;
12437;SDS011;6283;51.330;12.374;2024-02-28T04:55:51;26.67;;;14.77;;
12437;SDS011;6283;51.330;12.374;2024-02-28T04:58:17;30.00;;;14.40;;
12437;SDS011;6283;51.330;12.374;2024-02-28T05:00:42;30.50;;;16.17;;
12437;SDS011;6283;51.330;12.374;2024-02-28T05:03:08;26.93;;;15.37;;
12437;SDS011;6283;51.330;12.374;2024-02-28T05:05:33;26.03;;;14.40;;
12437;SDS011;6283;51.330;12.374;2024-02-28T05:07:59;27.50;;;15.00;;
12437;SDS011;6283;51.330;12.374;2024-02-28T05:10:24;25.00;;;14.87;;
12437;SDS011;6283;51.330;12.374;2024-02-28T05:12:50;26.93;;;14.80;;
12437;SDS011;6283;51.330;12.374;2024-02-28T05:15:16;25.57;;;14.47;;
12437;SDS011;6283;51.330;12.374;2024-02-28T05:17:42;28.03;;;15.30;;
12437;SDS011;6283;51.330;12.374;2024-02-28T05:20:08;29.63;;;14.53;;
12437;SDS011;6283;51.330;12.374;2024-02-28T05:22:34;23.10;;;14.17;;
12437;SDS011;6283;51.330;12.374;2024-02-28T05:24:59;23.77;;;14.20;;
12437;SDS011;6283;51.330;12.374;2024-02-28T05:27:25;23.77;;;13.60;;
12437;SDS011;6283;51.330;12.374;2024-02-28T05:29:51;25.43;;;14.43;;
12437;SDS011;6283;51.330;12.374;2024-02-28T05:32:16;22.30;;;12.70;;
12437;SDS011;6283;51.330;12.374;2024-02-28T05:34:42;23.07;;;13.43;;
12437;SDS011;6283;51.330;12.374;2024-02-28T05:37:08;23.83;;;13.33;;
12437;SDS011;6283;51.330;12.374;2024-02-28T05:39:33;23.60;;;12.80;;
12437;SDS011;6283;51.330;12.374;2024-02-28T05:41:59;23.00;;;11.70;;
12437;SDS011;6283;51.330;12.374;2024-02-28T05:44:25;22.40;;;12.70;;
12437;SDS011;6283;51.330;12.374;2024-02-28T05:46:51;19.13;;;12.57;;
12437;SDS011;6283;51.330;12.374;2024-02-28T05:49:17;20.13;;;11.47;;
12437;SDS011;6283;51.330;12.374;2024-02-28T05:51:42;22.00;;;11.87;;
12437;SDS011;6283;51.330;12.374;2024-02-28T05:54:08;19.30;;;11.97;;
12437;SDS011;6283;51.330;12.374;2024-02-28T05:56:33;18.43;;;11.00;;
12437;SDS011;6283;51.330;12.374;2024-02-28T05:58:59;21.67;;;12.50;;
12437;SDS011;6283;51.330;12.374;2024-02-28T06:01:24;23.53;;;12.07;;
12437;SDS011;6283;51.330;12.374;2024-02-28T06:03:50;20.77;;;12.10;;
12437;SDS011;6283;51.330;12.374;2024-02-28T06:06:16;21.07;;;11.43;;
12437;SDS011;6283;51.330;12.374;2024-02-28T06:08:42;19.53;;;11.17;;
12437;SDS011;6283;51.330;12.374;2024-02-28T06:11:08;22.03;;;11.77;;
12437;SDS011;6283;51.330;12.374;2024-02-28T06:13:34;21.07;;;11.30;;
12437;SDS011;6283;51.330;12.374;2024-02-28T06:16:01;20.93;;;11.70;;
12437;SDS011;6283;51.330;12.374;2024-02-28T06:18:27;18.27;;;10.07;;
12437;SDS011;6283;51.330;12.374;2024-02-28T06:20:53;18.97;;;11.57;;
12437;SDS011;6283;51.330;12.374;2024-02-28T06:23:20;18.60;;;11.53;;
12437;SDS011;6283;51.330;12.374;2024-02-28T06:25:48;20.53;;;11.30;;
12437;SDS011;6283;51.330;12.374;2024-02-28T06:28:14;24.17;;;13.43;;
12437;SDS011;6283;51.330;12.374;2024-02-28T06:30:40;20.77;;;12.93;;
12437;SDS011;6283;51.330;12.374;2024-02-28T06:33:07;22.43;;;12.30;;
12437;SDS011;6283;51.330;12.374;2024-02-28T06:35:33;20.97;;;12.80;;
12437;SDS011;6283;51.330;12.374;2024-02-28T06:37:59;22.90;;;12.07;;
12437;SDS011;6283;51.330;12.374;2024-02-28T06:40:25;23.67;;;12.83;;
12437;SDS011;6283;51.330;12.374;2024-02-28T06:42:51;23.57;;;13.10;;
12437;SDS011;6283;51.330;12.374;2024-02-28T06:45:16;25.30;;;13.23;;
12437;SDS011;6283;51.330;12.374;2024-02-28T06:47:42;28.50;;;14.80;;
12437;SDS011;6283;51.330;12.374;2024-02-28T06:50:10;26.37;;;12.97;;
12437;SDS011;6283;51.330;12.374;2024-02-28T06:52:35;25.43;;;13.17;;
12437;SDS011;6283;51.330;12.374;2024-02-28T06:55:01;29.00;;;16.73;;
12437;SDS011;6283;51.330;12.374;2024-02-28T06:57:34;28.90;;;16.07;;
12437;SDS011;6283;51.330;12.374;2024-02-28T07:00:05;26.63;;;15.13;;
12437;SDS011;6283;51.330;12.374;2024-02-28T07:02:33;28.27;;;15.20;;
12437;SDS011;6283;51.330;12.374;2024-02-28T07:05:00;33.63;;;17.90;;
12437;SDS011;6283;51.330;12.374;2024-02-28T07:07:25;31.40;;;17.03;;
12437;SDS011;6283;51.330;12.374;2024-02-28T07:09:51;32.40;;;17.23;;
12437;SDS011;6283;51.330;12.374;2024-02-28T07:12:17;35.07;;;17.57;;
12437;SDS011;6283;51.330;12.374;2024-02-28T07:14:42;34.77;;;18.67;;
12437;SDS011;6283;51.330;12.374;2024-02-28T07:17:08;34.47;;;17.70;;
12437;SDS011;6283;51.330;12.374;2024-02-28T07:19:35;35.03;;;19.97;;
12437;SDS011;6283;51.330;12.374;2024-02-28T07:22:01;29.67;;;16.73;;
12437;SDS011;6283;51.330;12.374;2024-02-28T07:24:27;31.67;;;17.00;;
12437;SDS011;6283;51.330;12.374;2024-02-28T07:26:53;33.17;;;17.93;;
12437;SDS011;6283;51.330;12.374;2024-02-28T07:29:19;32.73;;;16.57;;
12437;SDS011;6283;51.330;12.374;2024-02-28T07:31:44;34.23;;;18.80;;
12437;SDS011;6283;51.330;12.374;2024-02-28T07:34:10;33.77;;;19.07;;
12437;SDS011;6283;51.330;12.374;2024-02-28T07:36:36;39.07;;;20.03;;
12437;SDS011;6283;51.330;12.374;2024-02-28T07:39:02;34.47;;;18.00;;
12437;SDS011;6283;51.330;12.374;2024-02-28T07:41:28;36.17;;;19.57;;
12437;SDS011;6283;51.330;12.374;2024-02-28T07:43:53;37.53;;;20.57;;
12437;SDS011;6283;51.330;12.374;2024-02-28T07:46:19;36.60;;;20.23;;
12437;SDS011;6283;51.330;12.374;2024-02-28T07:48:44;39.57;;;19.40;;
12437;SDS011;6283;51.330;12.374;2024-02-28T07:51:10;38.40;;;20.33;;
12437;SDS011;6283;51.330;12.374;2024-02-28T07:53:36;39.67;;;20.10;;
12437;SDS011;6283;51.330;12.374;2024-02-28T07:56:02;41.27;;;20.37;;
12437;SDS011;6283;51.330;12.374;2024-02-28T07:58:28;40.57;;;20.83;;
12437;SDS011;6283;51.330;12.374;2024-02-28T08:00:53;40.03;;;20.27;;
12437;SDS011;6283;51.330;12.374;2024-02-28T08:03:19;38.97;;;20.53;;
12437;SDS011;6283;51.330;12.374;2024-02-28T08:05:44;41.03;;;20.63;;
12437;SDS011;6283;51.330;12.374;2024-02-28T08:08:11;44.07;;;20.60;;
12437;SDS011;6283;51.330;12.374;2024-02-28T08:10:37;40.37;;;20.80;;
12437;SDS011;6283;51.330;12.374;2024-02-28T08:13:03;37.00;;;19.43;;
12437;SDS011;6283;51.330;12.374;2024-02-28T08:15:29;36.17;;;18.57;;
12437;SDS011;6283;51.330;12.374;2024-02-28T08:17:55;37.13;;;20.67;;
12437;SDS011;6283;51.330;12.374;2024-02-28T08:20:20;40.03;;;20.57;;
12437;SDS011;6283;51.330;12.374;2024-02-28T08:22:46;36.23;;;18.33;;
12437;SDS011;6283;51.330;12.374;2024-02-28T08:25:12;35.40;;;18.27;;
12437;SDS011;6283;51.330;12.374;2024-02-28T08:27:39;34.20;;;18.40;;
12437;SDS011;6283;51.330;12.374;2024-02-28T08:30:05;30.77;;;17.83;;
12437;SDS011;6283;51.330;12.374;2024-02-28T08:32:31;31.20;;;18.13;;
12437;SDS011;6283;51.330;12.374;2024-02-28T08:34:57;30.00;;;17.07;;
12437;SDS011;6283;51.330;12.374;2024-02-28T08:37:23;31.60;;;17.90;;
12437;SDS011;6283;51.330;12.374;2024-02-28T08:39:49;28.17;;;15.93;;
12437;SDS011;6283;51.330;12.374;2024-02-28T08:42:15;30.63;;;17.87;;
12437;SDS011;6283;51.330;12.374;2024-02-28T08:44:41;33.17;;;17.30;;
12437;SDS011;6283;51.330;12.374;2024-02-28T08:47:07;30.33;;;16.80;;
12437;SDS011;6283;51.330;12.374;2024-02-28T08:49:38;29.50;;;16.63;;
12437;SDS011;6283;51.330;12.374;2024-02-28T08:52:04;26.47;;;15.67;;
12437;SDS011;6283;51.330;12.374;2024-02-28T08:54:30;25.20;;;15.37;;
12437;SDS011;6283;51.330;12.374;2024-02-28T08:56:55;29.10;;;17.30;;
12437;SDS011;6283;51.330;12.374;2024-02-28T08:59:21;27.20;;;16.37;;
12437;SDS011;6283;51.330;12.374;2024-02-28T09:01:47;29.50;;;17.23;;
12437;SDS011;6283;51.330;12.374;2024-02-28T09:04:14;27.37;;;15.57;;
12437;SDS011;6283;51.330;12.374;2024-02-28T09:06:39;24.17;;;15.10;;
12437;SDS011;6283;51.330;12.374;2024-02-28T09:09:06;23.27;;;14.60;;
12437;SDS011;6283;51.330;12.374;2024-02-28T09:11:32;24.37;;;14.90;;
12437;SDS011;6283;51.330;12.374;2024-02-28T09:13:57;26.73;;;15.30;;
12437;SDS011;6283;51.330;12.374;2024-02-28T09:16:23;24.63;;;14.90;;
12437;SDS011;6283;51.330;12.374;2024-02-28T09:18:49;24.87;;;15.10;;
12437;SDS011;6283;51.330;12.374;2024-02-28T09:21:15;23.87;;;15.53;;
12437;SDS011;6283;51.330;12.374;2024-02-28T09:23:40;25.23;;;14.97;;
12437;SDS011;6283;51.330;12.374;2024-02-28T09:26:08;23.53;;;15.10;;
12437;SDS011;6283;51.330;12.374;2024-02-28T09:28:35;23.50;;;14.93;;
12437;SDS011;6283;51.330;12.374;2024-02-28T09:31:01;25.43;;;15.57;;
12437;SDS011;6283;51.330;12.374;2024-02-28T09:33:26;26.00;;;15.23;;
12437;SDS011;6283;51.330;12.374;2024-02-28T09:35:52;27.03;;;16.63;;
12437;SDS011;6283;51.330;12.374;2024-02-28T09:38:18;29.43;;;16.83;;
12437;SDS011;6283;51.330;12.374;2024-02-28T09:40:47;29.03;;;17.67;;
12437;SDS011;6283;51.330;12.374;2024-02-28T09:43:19;32.23;;;17.67;;
12437;SDS011;6283;51.330;12.374;2024-02-28T09:46:05;29.23;;;17.63;;
12437;SDS011;6283;51.330;12.374;2024-02-28T09:48:31;28.67;;;17.93;;
12437;SDS011;6283;51.330;12.374;2024-02-28T09:50:57;29.27;;;16.93;;
12437;SDS011;6283;51.330;12.374;2024-02-28T09:53:24;29.07;;;18.23;;
12437;SDS011;6283;51.330;12.374;2024-02-28T09:55:50;27.53;;;17.30;;
12437;SDS011;6283;51.330;12.374;2024-02-28T09:58:17;31.43;;;18.73;;
12437;SDS011;6283;51.330;12.374;2024-02-28T10:00:44;30.40;;;18.33;;
12437;SDS011;6283;51.330;12.374;2024-02-28T10:03:12;32.63;;;18.20;;
12437;SDS011;6283;51.330;12.374;2024-02-28T10:05:41;32.63;;;19.27;;
12437;SDS011;6283;51.330;12.374;2024-02-28T10:08:07;30.23;;;17.57;;
12437;SDS011;6283;51.330;12.374;2024-02-28T10:10:36;29.37;;;18.83;;
12437;SDS011;6283;51.330;12.374;2024-02-28T10:13:03;28.30;;;17.13;;
12437;SDS011;6283;51.330;12.374;2024-02-28T10:15:28;28.23;;;17.87;;
12437;SDS011;6283;51.330;12.374;2024-02-28T10:17:55;28.93;;;17.73;;
12437;SDS011;6283;51.330;12.374;2024-02-28T10:20:21;27.93;;;17.43;;
12437;SDS011;6283;51.330;12.374;2024-02-28T10:22:46;30.90;;;15.37;;
12437;SDS011;6283;51.330;12.374;2024-02-28T10:25:12;28.67;;;17.40;;
12437;SDS011;6283;51.330;12.374;2024-02-28T10:27:38;26.30;;;17.23;;
12437;SDS011;6283;51.330;12.374;2024-02-28T10:30:06;31.17;;;18.60;;
12437;SDS011;6283;51.330;12.374;2024-02-28T10:32:32;30.57;;;17.93;;
12437;SDS011;6283;51.330;12.374;2024-02-28T10:35:00;27.77;;;16.23;;
12437;SDS011;6283;51.330;12.374;2024-02-28T10:37:26;26.07;;;16.43;;
12437;SDS011;6283;51.330;12.374;2024-02-28T10:39:56;27.43;;;17.27;;
12437;SDS011;6283;51.330;12.374;2024-02-28T10:42:22;23.13;;;15.80;;
12437;SDS011;6283;51.330;12.374;2024-02-28T10:44:52;22.03;;;14.90;;
12437;SDS011;6283;51.330;12.374;2024-02-28T10:47:18;23.77;;;14.83;;
12437;SDS011;6283;51.330;12.374;2024-02-28T10:49:44;23.30;;;14.73;;
12437;SDS011;6283;51.330;12.374;2024-02-28T10:52:10;26.83;;;16.60;;
12437;SDS011;6283;51.330;12.374;2024-02-28T10:54:38;26.03;;;16.00;;
12437;SDS011;6283;51.330;12.374;2024-02-28T10:57:09;27.60;;;16.23;;
12437;SDS011;6283;51.330;12.374;2024-02-28T10:59:38;26.00;;;15.27;;
12437;SDS011;6283;51.330;12.374;2024-02-28T11:02:07;27.07;;;15.47;;
12437;SDS011;6283;51.330;12.374;2024-02-28T11:04:33;31.47;;;15.17;;
12437;SDS011;6283;51.330;12.374;2024-02-28T11:07:00;26.17;;;14.57;;
12437;SDS011;6283;51.330;12.374;2024-02-28T11:09:28;22.03;;;13.80;;
12437;SDS011;6283;51.330;12.374;2024-02-28T11:11:56;22.30;;;13.20;;
12437;SDS011;6283;51.330;12.374;2024-02-28T11:14:22;21.10;;;12.63;;
12437;SDS011;6283;51.330;12.374;2024-02-28T11:17:05;19.87;;;12.13;;
12437;SDS011;6283;51.330;12.374;2024-02-28T11:19:32;19.33;;;11.33;;
12437;SDS011;6283;51.330;12.374;2024-02-28T11:21:58;19.40;;;11.70;;
12437;SDS011;6283;51.330;12.374;2024-02-28T11:24:28;18.60;;;11.30;;
12437;SDS011;6283;51.330;12.374;2024-02-28T11:26:55;19.77;;;12.00;;
12437;SDS011;6283;51.330;12.374;2024-02-28T11:29:25;21.00;;;12.97;;
12437;SDS011;6283;51.330;12.374;2024-02-28T11:31:52;22.73;;;13.67;;
12437;SDS011;6283;51.330;12.374;2024-02-28T11:34:18;19.70;;;11.97;;
12437;SDS011;6283;51.330;12.374;2024-02-28T11:36:46;22.53;;;13.43;;
12437;SDS011;6283;51.330;12.374;2024-02-28T11:39:13;22.87;;;12.47;;
12437;SDS011;6283;51.330;12.374;2024-02-28T11:41:39;22.60;;;13.27;;
12437;SDS011;6283;51.330;12.374;2024-02-28T11:44:05;24.33;;;13.30;;
12437;SDS011;6283;51.330;12.374;2024-02-28T11:46:30;19.13;;;11.63;;
12437;SDS011;6283;51.330;12.374;2024-02-28T11:48:57;19.10;;;12.30;;
12437;SDS011;6283;51.330;12.374;2024-02-28T11:51:23;17.67;;;11.90;;
12437;SDS011;6283;51.330;12.374;2024-02-28T11:53:48;17.27;;;11.17;;
12437;SDS011;6283;51.330;12.374;2024-02-28T11:56:14;16.33;;;10.90;;
12437;SDS011;6283;51.330;12.374;2024-02-28T11:58:52;19.13;;;11.10;;
12437;SDS011;6283;51.330;12.374;2024-02-28T12:01:18;16.20;;;10.23;;
12437;SDS011;6283;51.330;12.374;2024-02-28T12:04:05;15.63;;;10.90;;
12437;SDS011;6283;51.330;12.374;2024-02-28T12:06:31;15.23;;;9.67;;
12437;SDS011;6283;51.330;12.374;2024-02-28T12:08:58;16.03;;;10.83;;
12437;SDS011;6283;51.330;12.374;2024-02-28T12:11:24;14.57;;;9.63;;
12437;SDS011;6283;51.330;12.374;2024-02-28T12:13:53;16.73;;;10.67;;
12437;SDS011;6283;51.330;12.374;2024-02-28T12:16:22;15.73;;;10.60;;
12437;SDS011;6283;51.330;12.374;2024-02-28T12:18:48;17.77;;;10.60;;
12437;SDS011;6283;51.330;12.374;2024-02-28T12:21:14;14.80;;;9.87;;
12437;SDS011;6283;51.330;12.374;2024-02-28T12:23:40;16.00;;;10.80;;
12437;SDS011;6283;51.330;12.374;2024-02-28T12:26:05;15.10;;;10.67;;
12437;SDS011;6283;51.330;12.374;2024-02-28T12:28:31;13.67;;;10.10;;
12437;SDS011;6283;51.330;12.374;2024-02-28T12:30:57;14.80;;;10.03;;
12437;SDS011;6283;51.330;12.374;2024-02-28T12:33:22;16.03;;;10.30;;
12437;SDS011;6283;51.330;12.374;2024-02-28T12:35:48;15.87;;;9.67;;
12437;SDS011;6283;51.330;12.374;2024-02-28T12:38:14;14.97;;;10.30;;
12437;SDS011;6283;51.330;12.374;2024-02-28T12:40:40;13.77;;;9.73;;
12437;SDS011;6283;51.330;12.374;2024-02-28T12:43:07;13.37;;;10.10;;
12437;SDS011;6283;51.330;12.374;2024-02-28T12:45:33;15.80;;;9.83;;
12437;SDS011;6283;51.330;12.374;2024-02-28T12:47:58;28.73;;;9.87;;
12437;SDS011;6283;51.330;12.374;2024-02-28T12:50:26;14.90;;;10.03;;
12437;SDS011;6283;51.330;12.374;2024-02-28T12:52:52;15.57;;;10.35;;
12437;SDS011;6283;51.330;12.374;2024-02-28T12:55:19;12.05;;;8.13;;
12437;SDS011;6283;51.330;12.374;2024-02-28T12:57:46;14.38;;;9.40;;
12437;SDS011;6283;51.330;12.374;2024-02-28T13:00:12;11.07;;;9.02;;
12437;SDS011;6283;51.330;12.374;2024-02-28T13:02:38;12.70;;;9.75;;
12437;SDS011;6283;51.330;12.374;2024-02-28T13:05:04;12.35;;;9.70;;
12437;SDS011;6283;51.330;12.374;2024-02-28T13:07:29;12.32;;;9.05;;
12437;SDS011;6283;51.330;12.374;2024-02-28T13:09:55;11.55;;;8.93;;
12437;SDS011;6283;51.330;12.374;2024-02-28T13:12:21;12.88;;;8.70;;
12437;SDS011;6283;51.330;12.374;2024-02-28T13:14:47;12.60;;;9.30;;
12437;SDS011;6283;51.330;12.374;2024-02-28T13:17:13;13.95;;;9.18;;
12437;SDS011;6283;51.330;12.374;2024-02-28T13:19:40;11.50;;;8.48;;
12437;SDS011;6283;51.330;12.374;2024-02-28T13:22:05;10.52;;;7.65;;
12437;SDS011;6283;51.330;12.374;2024-02-28T13:24:31;11.05;;;8.15;;
12437;SDS011;6283;51.330;12.374;2024-02-28T13:26:57;9.57;;;7.57;;
12437;SDS011;6283;51.330;12.374;2024-02-28T13:29:23;11.75;;;9.13;;
12437;SDS011;6283;51.330;12.374;2024-02-28T13:31:48;11.80;;;7.88;;
12437;SDS011;6283;51.330;12.374;2024-02-28T13:34:14;10.35;;;7.97;;
12437;SDS011;6283;51.330;12.374;2024-02-28T13:36:39;12.25;;;7.45;;
12437;SDS011;6283;51.330;12.374;2024-02-28T13:39:09;10.23;;;7.35;;
12437;SDS011;6283;51.330;12.374;2024-02-28T13:41:36;11.98;;;7.18;;
12437;SDS011;6283;51.330;12.374;2024-02-28T13:44:02;9.07;;;7.40;;
12437;SDS011;6283;51.330;12.374;2024-02-28T13:46:28;10.90;;;6.72;;
12437;SDS011;6283;51.330;12.374;2024-02-28T13:48:53;9.60;;;6.43;;
12437;SDS011;6283;51.330;12.374;2024-02-28T13:51:19;12.48;;;7.07;;
12437;SDS011;6283;51.330;12.374;2024-02-28T13:53:45;9.10;;;5.95;;
12437;SDS011;6283;51.330;12.374;2024-02-28T13:56:10;8.00;;;6.25;;
12437;SDS011;6283;51.330;12.374;2024-02-28T13:58:36;8.77;;;5.85;;
12437;SDS011;6283;51.330;12.374;2024-02-28T14:01:02;9.23;;;6.95;;
12437;SDS011;6283;51.330;12.374;2024-02-28T14:03:27;7.95;;;6.25;;
12437;SDS011;6283;51.330;12.374;2024-02-28T14:05:53;9.88;;;6.90;;
12437;SDS011;6283;51.330;12.374;2024-02-28T14:08:19;9.05;;;6.85;;
12437;SDS011;6283;51.330;12.374;2024-02-28T14:10:44;9.10;;;6.65;;
12437;SDS011;6283;51.330;12.374;2024-02-28T14:13:10;8.48;;;6.20;;
12437;SDS011;6283;51.330;12.374;2024-02-28T14:15:37;19.80;;;12.45;;
12437;SDS011;6283;51.330;12.374;2024-02-28T14:18:03;13.57;;;8.93;;
12437;SDS011;6283;51.330;12.374;2024-02-28T14:20:29;10.82;;;7.97;;